Time;durP1;ratioP1;P1;durP2;ratioP2;P2;SDS_P1;SDS_P2;PMS_P1;PMS_P2;Temp;Humidity;BMP_temperature;BMP_pressure;BME280_temperature;BME280_humidity;BME280_pressure;Samples;Min_cycle;Max_cycle;Signal;HPM_P1;HPM_P2
2023/08/28 00:01:24;;;;;;;;;;;;;;;24.77;66.02;96603.05;620979;228;66838;-68
2023/08/28 00:03:51;;;;;;;;;;;;;;;24.76;65.98;96602.27;621299;228;62478;-68
2023/08/28 00:06:19;;;;;;;;;;;;;;;24.76;65.96;96596.10;622022;226;67055;-68
2023/08/28 00:08:46;;;;;;;;;;;;;;;24.78;66.02;96612.72;620964;227;67068;-68
2023/08/28 00:11:14;;;;;;;;;;;;;;;24.76;66.14;96610.33;619502;228;65235;-68
2023/08/28 00:13:41;;;;;;;;;;;;;;;24.76;66.03;96609.54;621136;228;67070;-67
2023/08/28 00:16:09;;;;;;;;;;;;;;;24.76;66.08;96610.33;619862;228;64506;-68
2023/08/28 00:18:37;;;;;;;;;;;;;;;24.76;66.13;96609.54;620742;228;65044;-68
2023/08/28 00:21:04;;;;;;;;;;;;;;;24.76;66.20;96601.48;620715;228;64834;-66
2023/08/28 00:23:32;;;;;;;;;;;;;;;24.76;66.10;96607.64;620005;228;64912;-65
2023/08/28 00:26:02;;;;;;;;;;;;;;;24.76;66.20;96606.84;621390;228;62753;-65
2023/08/28 00:28:30;;;;;;;;;;;;;;;24.76;66.09;96604.16;618037;228;65728;-67
2023/08/28 00:30:57;;;;;;;;;;;;;;;24.74;65.98;96599.08;617728;228;67112;-69
2023/08/28 00:33:25;;;;;;;;;;;;;;;24.76;66.54;96596.10;620130;228;62650;-69
2023/08/28 00:35:53;;;;;;;;;;;;;;;24.75;66.28;96591.84;621474;228;67429;-66
2023/08/28 00:38:20;;;;;;;;;;;;;;;24.75;66.43;96592.63;621143;228;66986;-69
2023/08/28 00:40:48;;;;;;;;;;;;;;;24.75;66.43;96591.84;619596;228;62698;-68
2023/08/28 00:43:15;;;;;;;;;;;;;;;24.75;66.32;96591.84;620780;228;64538;-69
2023/08/28 00:45:43;;;;;;;;;;;;;;;24.75;66.62;96592.63;621577;228;66821;-68
2023/08/28 00:48:13;;;;;;;;;;;;;;;24.75;66.48;96591.84;621509;228;65101;-69
2023/08/28 00:50:40;;;;;;;;;;;;;;;24.74;66.48;96588.33;621509;228;67193;-69
2023/08/28 00:53:11;;;;;;;;;;;;;;;24.74;66.49;96592.92;620261;228;68086;-67
2023/08/28 00:55:38;;;;;;;;;;;;;;;24.73;66.17;96591.34;617110;228;64917;-68
2023/08/28 00:58:06;;;;;;;;;;;;;;;24.73;66.00;96597.50;621169;228;67110;-65
2023/08/28 01:00:33;;;;;;;;;;;;;;;24.74;66.16;96600.98;620214;228;64488;-65
2023/08/28 01:03:01;;;;;;;;;;;;;;;24.73;66.02;96599.41;621524;228;62705;-65
2023/08/28 01:05:46;;;;;;;;;;;;;;;24.73;66.07;96596.72;621093;228;67262;-65
2023/08/28 01:08:15;;;;;;;;;;;;;;;24.74;66.22;96600.98;620238;228;64614;-65
2023/08/28 01:10:44;;;;;;;;;;;;;;;24.73;65.93;96599.41;621213;228;63074;-66
2023/08/28 01:13:13;;;;;;;;;;;;;;;24.72;66.23;96590.55;621227;228;66943;-65
2023/08/28 01:15:41;;;;;;;;;;;;;;;24.71;65.92;96588.95;621508;228;62937;-66
2023/08/28 01:18:10;;;;;;;;;;;;;;;24.71;65.95;96583.57;621478;228;65227;-68
2023/08/28 01:20:39;;;;;;;;;;;;;;;24.71;65.99;96585.47;620711;228;66224;-68
2023/08/28 01:23:08;;;;;;;;;;;;;;;24.72;65.98;96581.70;620654;228;67275;-68
2023/08/28 01:25:36;;;;;;;;;;;;;;;24.70;65.99;96579.31;619985;228;65001;-68
2023/08/28 01:28:04;;;;;;;;;;;;;;;24.71;66.17;96574.72;619491;228;67255;-68
2023/08/28 01:30:32;;;;;;;;;;;;;;;24.71;66.01;96566.66;619509;228;67071;-68
2023/08/28 01:33:00;;;;;;;;;;;;;;;24.70;66.09;96570.46;620552;228;62846;-68
2023/08/28 01:35:29;;;;;;;;;;;;;;;24.70;65.85;96567.77;621511;228;67208;-68
2023/08/28 01:38:14;;;;;;;;;;;;;;;24.70;65.86;96557.02;621486;228;65530;-68
2023/08/28 01:40:46;;;;;;;;;;;;;;;24.70;66.19;96563.19;621556;228;64986;-68
2023/08/28 01:43:15;;;;;;;;;;;;;;;24.69;66.10;96561.61;620128;227;67171;-67
2023/08/28 01:45:43;;;;;;;;;;;;;;;24.70;66.01;96565.09;621133;228;67039;-67
2023/08/28 01:48:10;;;;;;;;;;;;;;;24.69;65.99;96561.61;621501;228;62635;-67
2023/08/28 01:50:38;;;;;;;;;;;;;;;24.69;66.03;96560.80;621515;228;65173;-67
2023/08/28 01:53:05;;;;;;;;;;;;;;;24.69;65.63;96566.16;621468;228;67410;-67
2023/08/28 01:55:41;;;;;;;;;;;;;;;24.68;65.74;96560.00;621573;228;65001;-67
2023/08/28 01:58:08;;;;;;;;;;;;;;;24.68;65.36;96564.59;621536;228;65094;-68
2023/08/28 02:00:36;;;;;;;;;;;;;;;24.68;65.52;96564.59;617706;228;66791;-68
2023/08/28 02:03:04;;;;;;;;;;;;;;;24.68;65.90;96565.38;618326;228;62886;-68
2023/08/28 02:05:32;;;;;;;;;;;;;;;24.67;65.82;96555.73;621542;228;67285;-68
2023/08/28 02:08:00;;;;;;;;;;;;;;;24.68;65.88;96561.91;621534;228;65321;-68
2023/08/28 02:10:28;;;;;;;;;;;;;;;24.67;65.37;96565.70;621525;228;66222;-68
2023/08/28 02:12:57;;;;;;;;;;;;;;;24.67;65.58;96554.95;621293;228;67824;-68
2023/08/28 02:15:25;;;;;;;;;;;;;;;24.67;65.29;96560.33;620114;228;65246;-68
2023/08/28 02:17:53;;;;;;;;;;;;;;;24.66;65.38;96556.03;621515;228;62708;-68
2023/08/28 02:20:20;;;;;;;;;;;;;;;24.66;65.73;96556.82;615957;225;67416;-68
2023/08/28 02:22:49;;;;;;;;;;;;;;;24.66;65.88;96561.41;619238;228;67620;-68
2023/08/28 02:25:22;;;;;;;;;;;;;;;24.65;65.57;96560.62;619313;229;62913;-68
2023/08/28 02:27:49;;;;;;;;;;;;;;;24.65;65.50;96563.30;619957;224;71294;-68
2023/08/28 02:30:17;;;;;;;;;;;;;;;24.65;65.53;96565.99;620412;225;66782;-68
2023/08/28 02:32:48;;;;;;;;;;;;;;;24.65;65.39;96568.67;621253;228;65103;-68
2023/08/28 02:35:15;;;;;;;;;;;;;;;24.65;65.20;96559.83;621052;227;67239;-66
2023/08/28 02:37:43;;;;;;;;;;;;;;;24.65;65.43;96547.19;613132;227;67857;-66
2023/08/28 02:40:11;;;;;;;;;;;;;;;24.65;65.20;96549.88;620809;228;63041;-66
2023/08/28 02:42:39;;;;;;;;;;;;;;;24.65;65.31;96539.13;620546;228;66875;-66
2023/08/28 02:45:07;;;;;;;;;;;;;;;24.64;65.13;96536.76;620168;228;64326;-66
2023/08/28 02:47:36;;;;;;;;;;;;;;;24.65;65.11;96538.34;620012;229;42448;-66
2023/08/28 02:50:06;;;;;;;;;;;;;;;24.64;65.32;96545.61;619905;229;65192;-66
2023/08/28 02:52:34;;;;;;;;;;;;;;;24.65;65.40;96554.45;620604;228;65154;-66
2023/08/28 02:55:02;;;;;;;;;;;;;;;24.64;65.38;96547.51;621393;227;65098;-66
2023/08/28 02:57:29;;;;;;;;;;;;;;;24.64;65.40;96550.19;620733;227;67313;-66
2023/08/28 02:59:57;;;;;;;;;;;;;;;24.63;65.41;96544.00;620019;228;67697;-66
2023/08/28 03:02:24;;;;;;;;;;;;;;;24.64;65.19;96542.13;620370;228;65336;-66
2023/08/28 03:04:52;;;;;;;;;;;;;;;24.63;65.59;96545.90;620642;228;67245;-66
2023/08/28 03:07:19;;;;;;;;;;;;;;;24.63;65.26;96552.06;619869;229;66952;-66
2023/08/28 03:09:47;;;;;;;;;;;;;;;24.63;65.39;96551.27;620152;228;63019;-66
2023/08/28 03:12:15;;;;;;;;;;;;;;;24.63;65.19;96551.27;620598;228;67744;-66
2023/08/28 03:14:43;;;;;;;;;;;;;;;24.63;65.39;96548.59;620114;228;66789;-66
2023/08/28 03:17:10;;;;;;;;;;;;;;;24.62;65.45;96550.48;613429;228;70728;-66
2023/08/28 03:19:38;;;;;;;;;;;;;;;24.62;65.43;96549.70;621694;227;65013;-66
2023/08/28 03:22:06;;;;;;;;;;;;;;;24.62;65.56;96552.39;619827;229;68335;-66
2023/08/28 03:24:34;;;;;;;;;;;;;;;24.61;65.07;96546.22;619916;229;65067;-66
2023/08/28 03:27:01;;;;;;;;;;;;;;;24.62;65.09;96547.02;620516;228;65074;-66
2023/08/28 03:29:29;;;;;;;;;;;;;;;24.62;65.09;96538.95;620361;228;64817;-66
2023/08/28 03:31:56;;;;;;;;;;;;;;;24.62;65.41;96545.11;620657;228;65190;-66
2023/08/28 03:34:24;;;;;;;;;;;;;;;24.62;64.80;96544.33;619875;229;67183;-66
2023/08/28 03:36:52;;;;;;;;;;;;;;;24.62;64.89;96545.11;620639;228;64283;-68
2023/08/28 03:39:19;;;;;;;;;;;;;;;24.63;65.19;96551.27;619980;229;63011;-68
2023/08/28 03:41:47;;;;;;;;;;;;;;;24.62;64.98;96544.33;619958;228;66676;-68
2023/08/28 03:44:14;;;;;;;;;;;;;;;24.62;64.80;96549.70;620665;227;64465;-68
2023/08/28 03:46:42;;;;;;;;;;;;;;;24.62;65.39;96544.33;619865;229;62651;-68
2023/08/28 03:49:10;;;;;;;;;;;;;;;24.61;65.19;96542.72;620080;228;67613;-66
2023/08/28 03:51:38;;;;;;;;;;;;;;;24.61;65.48;96546.22;620521;228;66770;-66
2023/08/28 03:54:07;;;;;;;;;;;;;;;24.60;64.61;96544.62;620119;228;64864;-66
2023/08/28 03:56:36;;;;;;;;;;;;;;;24.59;65.04;96541.14;620460;228;67579;-66
2023/08/28 03:59:04;;;;;;;;;;;;;;;24.61;65.44;96542.72;620661;228;64703;-66
2023/08/28 04:01:31;;;;;;;;;;;;;;;24.59;65.29;96534.98;619909;229;65279;-68
2023/08/28 04:03:59;;;;;;;;;;;;;;;24.60;65.30;96541.93;620276;228;66845;-68
2023/08/28 04:06:27;;;;;;;;;;;;;;;24.60;64.98;96536.56;620134;228;67518;-68
2023/08/28 04:08:55;;;;;;;;;;;;;;;24.59;65.13;96537.67;620426;228;62737;-66
2023/08/28 04:11:22;;;;;;;;;;;;;;;24.59;65.06;96543.83;619882;229;66662;-66
2023/08/28 04:13:50;;;;;;;;;;;;;;;24.58;64.63;96544.94;619827;229;64459;-66
2023/08/28 04:16:18;;;;;;;;;;;;;;;24.58;64.61;96542.25;620329;228;65802;-68
2023/08/28 04:18:46;;;;;;;;;;;;;;;24.57;64.91;96537.96;620578;228;64746;-68
2023/08/28 04:21:14;;;;;;;;;;;;;;;24.58;65.09;96536.88;620625;228;66744;-68
2023/08/28 04:23:42;;;;;;;;;;;;;;;24.57;64.72;96543.33;620535;228;62654;-68
2023/08/28 04:26:09;;;;;;;;;;;;;;;24.56;64.71;96536.38;616331;228;66999;-68
2023/08/28 04:28:37;;;;;;;;;;;;;;;24.58;65.15;96536.06;620115;228;66579;-68
2023/08/28 04:31:06;;;;;;;;;;;;;;;24.56;64.65;96541.76;619870;229;62461;-68
2023/08/28 04:33:35;;;;;;;;;;;;;;;24.56;64.87;96531.02;619897;229;66890;-68
2023/08/28 04:36:03;;;;;;;;;;;;;;;24.56;64.61;96533.70;621607;227;67075;-68
2023/08/28 04:38:30;;;;;;;;;;;;;;;24.55;64.35;96540.19;620786;227;64881;-68
2023/08/28 04:40:58;;;;;;;;;;;;;;;24.55;64.44;96545.55;621176;227;67693;-66
2023/08/28 04:43:25;;;;;;;;;;;;;;;24.55;64.41;96540.19;621327;227;64272;-66
2023/08/28 04:45:53;;;;;;;;;;;;;;;24.54;64.30;96541.27;620584;228;65236;-66
2023/08/28 04:48:20;;;;;;;;;;;;;;;24.55;64.26;96540.19;620477;228;67147;-66
2023/08/28 04:50:48;;;;;;;;;;;;;;;24.54;64.43;96541.27;620338;228;64462;-66
2023/08/28 04:53:16;;;;;;;;;;;;;;;24.54;64.52;96537.78;620304;228;62475;-66
2023/08/28 04:55:43;;;;;;;;;;;;;;;24.54;64.64;96537.78;620040;228;66711;-66
2023/08/28 04:58:11;;;;;;;;;;;;;;;24.53;64.23;96531.63;619997;228;65487;-66
2023/08/28 05:00:40;;;;;;;;;;;;;;;24.54;63.72;96543.16;613290;230;66184;-66
2023/08/28 05:03:09;;;;;;;;;;;;;;;24.53;63.86;96539.69;619778;229;52045;-66
2023/08/28 05:05:36;;;;;;;;;;;;;;;24.53;63.78;96536.21;619880;229;66599;-66
2023/08/28 05:08:05;;;;;;;;;;;;;;;24.52;63.46;96539.98;619889;229;63810;-66
2023/08/28 05:10:33;;;;;;;;;;;;;;;24.52;63.63;96538.08;619884;229;64463;-66
2023/08/28 05:13:00;;;;;;;;;;;;;;;24.53;63.31;96542.38;619984;228;64284;-66
2023/08/28 05:15:28;;;;;;;;;;;;;;;24.53;63.78;96541.58;620537;228;62632;-66
2023/08/28 05:17:55;;;;;;;;;;;;;;;24.52;64.14;96538.08;619877;229;66849;-66
2023/08/28 05:20:23;;;;;;;;;;;;;;;24.52;63.89;96545.34;619889;229;66819;-66
2023/08/28 05:22:50;;;;;;;;;;;;;;;24.52;63.96;96539.98;620433;228;64124;-66
2023/08/28 05:25:18;;;;;;;;;;;;;;;24.51;63.77;96533.81;619903;229;64386;-66
2023/08/28 05:27:46;;;;;;;;;;;;;;;24.52;63.93;96531.92;619866;229;66802;-66
2023/08/28 05:30:13;;;;;;;;;;;;;;;24.51;63.80;96536.50;619929;229;62973;-66
2023/08/28 05:32:41;;;;;;;;;;;;;;;24.51;63.99;96539.19;620440;228;66970;-66
2023/08/28 05:35:09;;;;;;;;;;;;;;;24.51;64.14;96538.40;620535;228;66637;-66
2023/08/28 05:37:37;;;;;;;;;;;;;;;24.51;64.13;96530.34;620046;228;62979;-66
2023/08/28 05:40:05;;;;;;;;;;;;;;;24.51;64.34;96533.03;619895;229;66986;-66
2023/08/28 05:42:32;;;;;;;;;;;;;;;24.50;64.06;96534.92;620688;228;66480;-67
2023/08/28 05:45:00;;;;;;;;;;;;;;;24.49;64.17;96525.27;620553;228;62673;-66
2023/08/28 05:47:28;;;;;;;;;;;;;;;24.50;64.25;96526.05;620432;228;64265;-66
2023/08/28 05:49:57;;;;;;;;;;;;;;;24.50;64.32;96520.67;620614;228;64427;-66
2023/08/28 05:52:24;;;;;;;;;;;;;;;24.49;64.35;96522.58;620144;228;65172;-67
2023/08/28 05:54:52;;;;;;;;;;;;;;;24.50;64.42;96526.87;619798;229;67430;-67
2023/08/28 05:57:20;;;;;;;;;;;;;;;24.49;64.49;96529.84;620650;228;65472;-68
2023/08/28 05:59:48;;;;;;;;;;;;;;;24.50;64.64;96523.36;619777;226;65025;-73
2023/08/28 06:02:16;;;;;;;;;;;;;;;24.48;64.21;96526.37;626143;226;64516;-66
2023/08/28 06:04:55;;;;;;;;;;;;;;;24.50;64.52;96526.05;626544;225;65279;-67
2023/08/28 06:07:20;;;;;;;;;;;;;;;24.49;64.97;96527.95;621030;227;65514;-67
2023/08/28 06:09:48;;;;;;;;;;;;;;;24.49;64.95;96536.00;620070;228;67402;-65
2023/08/28 06:12:15;;;;;;;;;;;;;;;24.49;65.08;96533.32;618855;229;64801;-67
2023/08/28 06:14:43;;;;;;;;;;;;;;;24.48;64.54;96523.69;619818;229;65095;-68
2023/08/28 06:17:12;;;;;;;;;;;;;;;24.49;64.70;96519.10;619641;228;70752;-68
2023/08/28 06:19:41;;;;;;;;;;;;;;;24.50;64.79;96509.94;618100;228;44034;-68
2023/08/28 06:22:09;;;;;;;;;;;;;;;24.49;65.07;96509.14;621028;227;65729;-68
2023/08/28 06:24:37;;;;;;;;;;;;;;;24.49;65.09;96508.36;621497;228;66849;-68
2023/08/28 06:27:04;;;;;;;;;;;;;;;24.49;65.10;96511.83;621444;228;65428;-71
2023/08/28 06:29:32;;;;;;;;;;;;;;;24.49;64.90;96506.45;620909;228;62654;-71
2023/08/28 06:31:59;;;;;;;;;;;;;;;24.50;65.05;96502.69;619488;228;66607;-71
2023/08/28 06:34:27;;;;;;;;;;;;;;;24.50;65.34;96499.19;620863;228;66360;-71
2023/08/28 06:36:55;;;;;;;;;;;;;;;24.50;65.22;96502.69;620841;228;65057;-65
2023/08/28 06:39:23;;;;;;;;;;;;;;;24.50;65.42;96489.27;620892;228;66695;-68
2023/08/28 06:41:50;;;;;;;;;;;;;;;24.52;62.91;96492.41;621521;227;64148;-68
2023/08/28 06:44:20;;;;;;;;;;;;;;;24.53;59.98;96487.86;621800;228;44296;-68
2023/08/28 06:46:47;;;;;;;;;;;;;;;24.55;59.43;96486.45;621547;228;66536;-69
2023/08/28 06:49:15;;;;;;;;;;;;;;;24.57;59.95;96484.23;614542;228;64929;-69
2023/08/28 06:51:43;;;;;;;;;;;;;;;24.57;59.73;96484.23;621526;227;62962;-68
2023/08/28 06:54:10;;;;;;;;;;;;;;;24.58;59.55;96476.96;621164;228;64308;-69
2023/08/28 06:56:38;;;;;;;;;;;;;;;24.59;61.13;96487.41;620336;228;66356;-69
2023/08/28 06:59:06;;;;;;;;;;;;;;;24.60;63.15;96477.45;619988;228;64886;-70
2023/08/28 07:01:33;;;;;;;;;;;;;;;24.60;63.55;96480.14;621499;228;66953;-70
2023/08/28 07:04:01;;;;;;;;;;;;;;;24.59;63.66;96475.88;621404;228;67067;-68
2023/08/28 07:06:28;;;;;;;;;;;;;;;24.59;63.36;96479.35;619810;228;62661;-69
2023/08/28 07:08:56;;;;;;;;;;;;;;;24.59;63.32;96475.88;619408;227;64263;-68
2023/08/28 07:11:23;;;;;;;;;;;;;;;24.60;63.50;96480.14;619463;228;65538;-68
2023/08/28 07:13:51;;;;;;;;;;;;;;;24.60;63.88;96480.14;620226;228;65284;-69
2023/08/28 07:16:18;;;;;;;;;;;;;;;24.60;63.56;96477.45;620172;228;66814;-69
2023/08/28 07:18:46;;;;;;;;;;;;;;;24.61;63.59;96480.93;620125;228;66672;-69
2023/08/28 07:21:13;;;;;;;;;;;;;;;24.61;63.18;96484.44;620200;227;64899;-68
2023/08/28 07:23:41;;;;;;;;;;;;;;;24.62;62.95;96491.38;621449;227;64252;-68
2023/08/28 07:26:09;;;;;;;;;;;;;;;24.62;61.74;96485.22;621429;228;64613;-69
2023/08/28 07:28:36;;;;;;;;;;;;;;;24.62;61.17;96490.59;621478;228;65105;-69
2023/08/28 07:31:04;;;;;;;;;;;;;;;24.64;62.82;96494.56;620398;228;67937;-68
2023/08/28 07:33:31;;;;;;;;;;;;;;;24.64;63.83;96488.40;620958;228;65424;-67
2023/08/28 07:35:59;;;;;;;;;;;;;;;24.63;60.96;96492.17;621165;228;65006;-68
2023/08/28 07:38:27;;;;;;;;;;;;;;;24.63;60.80;96492.17;620019;228;64694;-69
2023/08/28 07:40:54;;;;;;;;;;;;;;;24.65;60.76;96485.39;621471;228;64395;-72
2023/08/28 07:43:22;;;;;;;;;;;;;;;24.67;60.81;96487.78;621423;228;65198;-70
2023/08/28 07:45:49;;;;;;;;;;;;;;;24.67;60.83;96485.09;621407;227;67068;-66
2023/08/28 07:48:17;;;;;;;;;;;;;;;24.67;60.91;96483.20;621727;228;66885;-66
2023/08/28 07:50:45;;;;;;;;;;;;;;;24.69;60.89;96485.56;621472;228;62959;-66
2023/08/28 07:53:13;;;;;;;;;;;;;;;24.69;60.93;96478.31;620405;228;67205;-66
2023/08/28 07:55:40;;;;;;;;;;;;;;;24.70;60.97;96479.89;620625;228;64998;-67
2023/08/28 07:58:09;;;;;;;;;;;;;;;24.71;61.05;96480.68;620265;228;64819;-68
2023/08/28 08:00:38;;;;;;;;;;;;;;;24.71;61.12;96477.98;622275;227;67033;-67
2023/08/28 08:03:06;;;;;;;;;;;;;;;24.71;61.10;96484.16;621453;228;65047;-67
2023/08/28 08:05:33;;;;;;;;;;;;;;;24.73;61.09;96492.70;621429;228;62780;-68
2023/08/28 08:08:01;;;;;;;;;;;;;;;24.74;61.04;96488.13;621383;228;67056;-68
2023/08/28 08:10:28;;;;;;;;;;;;;;;24.74;61.08;96482.75;621542;228;68291;-68
2023/08/28 08:12:56;;;;;;;;;;;;;;;24.74;61.13;96482.75;619789;228;62755;-65
2023/08/28 08:15:23;;;;;;;;;;;;;;;24.74;61.13;96480.84;621377;228;64623;-67
2023/08/28 08:17:51;;;;;;;;;;;;;;;24.75;61.06;96479.77;621396;228;65116;-73
2023/08/28 08:20:20;;;;;;;;;;;;;;;24.76;61.10;96475.97;621091;228;62824;-66
2023/08/28 08:22:47;;;;;;;;;;;;;;;24.75;61.19;96482.45;620496;228;66965;-66
2023/08/28 08:25:15;;;;;;;;;;;;;;;24.76;61.17;96477.86;621485;228;64622;-63
2023/08/28 08:27:44;;;;;;;;;;;;;;;24.76;61.10;96475.17;621444;228;64920;-63
2023/08/28 08:30:13;;;;;;;;;;;;;;;24.76;61.15;96459.05;620516;228;67072;-63
2023/08/28 08:32:43;;;;;;;;;;;;;;;24.75;61.17;96458.27;621033;228;64887;-63
2023/08/28 08:35:12;;;;;;;;;;;;;;;24.76;61.21;96464.42;621450;228;65042;-64
2023/08/28 08:37:39;;;;;;;;;;;;;;;24.76;61.38;96457.16;621468;228;66841;-63
2023/08/28 08:40:09;;;;;;;;;;;;;;;24.77;61.20;96460.62;620342;228;67042;-63
2023/08/28 08:42:37;;;;;;;;;;;;;;;24.77;61.07;96460.62;620753;228;65600;-64
2023/08/28 08:45:04;;;;;;;;;;;;;;;24.77;60.82;96456.07;619603;228;67250;-63
2023/08/28 08:47:32;;;;;;;;;;;;;;;24.79;60.21;96455.75;620108;228;66874;-63
2023/08/28 08:50:00;;;;;;;;;;;;;;;24.79;59.75;96451.16;620787;227;65097;-63
2023/08/28 08:52:27;;;;;;;;;;;;;;;24.79;60.46;96453.84;622520;227;67116;-63
2023/08/28 08:54:56;;;;;;;;;;;;;;;24.80;60.45;96446.60;620013;228;64675;-63
2023/08/28 08:57:28;;;;;;;;;;;;;;;24.83;60.04;96447.84;620347;228;62770;-64
2023/08/28 08:59:56;;;;;;;;;;;;;;;24.81;57.98;96442.80;621069;228;65234;-64
2023/08/28 09:02:23;;;;;;;;;;;;;;;24.84;56.86;96441.39;621507;228;67333;-64
2023/08/28 09:04:51;;;;;;;;;;;;;;;24.86;60.75;96434.61;619992;228;64862;-63
2023/08/28 09:07:19;;;;;;;;;;;;;;;24.84;59.21;96444.08;621039;228;67067;-70
2023/08/28 09:09:46;;;;;;;;;;;;;;;24.84;58.93;96434.12;619455;228;67599;-74
2023/08/28 09:12:16;;;;;;;;;;;;;;;24.85;58.79;96434.91;620571;228;62739;-70
2023/08/28 09:14:43;;;;;;;;;;;;;;;24.85;59.01;96429.53;621529;228;68106;-67
2023/08/28 09:17:11;;;;;;;;;;;;;;;24.84;58.91;96417.98;621791;227;65486;-66
2023/08/28 09:19:43;;;;;;;;;;;;;;;24.84;57.44;96420.68;621628;228;62667;-70
2023/08/28 09:22:08;;;;;;;;;;;;;;;24.85;59.03;96424.16;621625;227;64963;-70
2023/08/28 09:24:37;;;;;;;;;;;;;;;24.84;59.42;96423.36;623304;227;64264;-69
2023/08/28 09:27:05;;;;;;;;;;;;;;;24.84;59.32;96417.98;621543;228;62667;-70
2023/08/28 09:29:34;;;;;;;;;;;;;;;24.84;59.30;96411.83;621486;228;67113;-70
2023/08/28 09:32:07;;;;;;;;;;;;;;;24.85;59.23;96408.81;621211;228;65227;-70
2023/08/28 09:34:41;;;;;;;;;;;;;;;24.85;58.86;96406.13;620819;228;64941;-70
2023/08/28 09:37:12;;;;;;;;;;;;;;;24.86;58.75;96405.05;620604;228;67333;-72
2023/08/28 09:39:41;;;;;;;;;;;;;;;24.86;58.04;96396.98;620984;228;64997;-72
2023/08/28 09:42:10;;;;;;;;;;;;;;;24.88;55.75;96397.47;621545;227;64916;-71
2023/08/28 09:44:37;;;;;;;;;;;;;;;24.90;56.72;96389.08;620181;228;67972;-69
2023/08/28 09:47:05;;;;;;;;;;;;;;;24.91;56.35;96396.03;621242;228;66754;-68
2023/08/28 09:49:34;;;;;;;;;;;;;;;24.89;56.53;96388.30;620255;227;65559;-68
2023/08/28 09:52:03;;;;;;;;;;;;;;;24.91;56.47;96387.96;621047;228;64491;-59
2023/08/28 09:54:30;;;;;;;;;;;;;;;24.90;56.29;96379.11;621496;228;66962;-69
2023/08/28 09:56:58;;;;;;;;;;;;;;;24.90;56.74;96372.95;621455;228;64856;-68
2023/08/28 09:59:27;;;;;;;;;;;;;;;24.90;57.22;96378.33;620931;228;64956;-66
2023/08/28 10:01:54;;;;;;;;;;;;;;;24.90;56.89;96371.05;620209;228;66743;-65
2023/08/28 10:04:22;;;;;;;;;;;;;;;24.90;55.89;96378.33;621502;228;62646;-65
2023/08/28 10:06:53;;;;;;;;;;;;;;;24.91;56.49;96371.84;619826;228;67526;-65
2023/08/28 10:09:22;;;;;;;;;;;;;;;24.90;55.21;96379.11;614773;228;67073;-65
2023/08/28 10:11:53;;;;;;;;;;;;;;;24.92;55.04;96382.29;620708;227;62990;-65
2023/08/28 10:14:22;;;;;;;;;;;;;;;24.93;55.62;96369.64;622657;227;64825;-65
2023/08/28 10:17:03;;;;;;;;;;;;;;;24.91;55.84;96375.34;620629;228;67064;-65
2023/08/28 10:19:41;;;;;;;;;;;;;;;24.92;55.86;96371.54;618009;227;64962;-65
2023/08/28 10:22:09;;;;;;;;;;;;;;;24.91;56.05;96369.97;622259;227;67502;-65
2023/08/28 10:24:37;;;;;;;;;;;;;;;24.90;56.25;96368.36;621520;228;67011;-66
2023/08/28 10:27:05;;;;;;;;;;;;;;;24.90;55.91;96357.61;619672;227;63073;-65
2023/08/28 10:29:34;;;;;;;;;;;;;;;24.90;56.50;96360.30;621426;228;67260;-66
2023/08/28 10:32:02;;;;;;;;;;;;;;;24.90;56.01;96357.61;620030;228;67012;-66
2023/08/28 10:34:31;;;;;;;;;;;;;;;24.90;57.38;96357.61;620426;228;63182;-64
2023/08/28 10:36:59;;;;;;;;;;;;;;;24.90;56.91;96356.83;620978;228;67191;-67
2023/08/28 10:39:29;;;;;;;;;;;;;;;24.90;56.13;96346.86;622115;227;64195;-67
2023/08/28 10:41:56;;;;;;;;;;;;;;;24.90;56.91;96351.45;619863;228;64913;-66
2023/08/28 10:44:24;;;;;;;;;;;;;;;24.90;56.31;96352.23;620348;228;66917;-66
2023/08/28 10:46:52;;;;;;;;;;;;;;;24.90;58.00;96346.86;621160;228;67092;-65
2023/08/28 10:49:20;;;;;;;;;;;;;;;24.90;56.31;96343.39;619457;228;65033;-65
2023/08/28 10:51:48;;;;;;;;;;;;;;;24.91;57.81;96347.65;616596;228;66654;-65
2023/08/28 10:54:15;;;;;;;;;;;;;;;24.91;58.40;96351.16;619848;228;66787;-65
2023/08/28 10:56:44;;;;;;;;;;;;;;;24.93;56.74;96348.92;621850;227;65005;-69
2023/08/28 10:59:27;;;;;;;;;;;;;;;24.96;59.46;96345.63;622940;227;65576;-68
2023/08/28 11:02:04;;;;;;;;;;;;;;;24.92;60.27;96339.28;621476;228;66936;-68
2023/08/28 11:04:30;;;;;;;;;;;;;;;24.92;58.14;96344.66;621105;228;66061;-67
2023/08/28 11:06:58;;;;;;;;;;;;;;;24.92;60.47;96339.28;618558;228;64425;-68
2023/08/28 11:09:30;;;;;;;;;;;;;;;24.91;59.07;96335.03;619117;229;66717;-68
2023/08/28 11:12:02;;;;;;;;;;;;;;;24.91;59.52;96332.34;619440;228;64950;-68
2023/08/28 11:14:33;;;;;;;;;;;;;;;24.90;60.32;96330.73;619417;229;65058;-68
2023/08/28 11:17:15;;;;;;;;;;;;;;;24.90;60.26;96316.52;619586;227;65506;-69
2023/08/28 11:19:56;;;;;;;;;;;;;;;24.90;59.45;96335.33;618943;229;65115;-66
2023/08/28 11:22:38;;;;;;;;;;;;;;;24.89;59.16;96326.48;618842;229;64772;-69
2023/08/28 11:25:07;;;;;;;;;;;;;;;24.90;58.93;96319.20;618748;229;67163;-69
2023/08/28 11:27:39;;;;;;;;;;;;;;;24.90;58.93;96313.83;618793;229;63116;-68
2023/08/28 11:30:08;;;;;;;;;;;;;;;24.90;59.20;96313.83;618820;229;67047;-68
2023/08/28 11:32:36;;;;;;;;;;;;;;;24.89;59.25;96301.50;618838;229;67131;-68
2023/08/28 11:35:05;;;;;;;;;;;;;;;24.89;60.06;96306.88;618870;229;63820;-67
2023/08/28 11:37:33;;;;;;;;;;;;;;;24.90;60.23;96298.48;618785;229;65047;-68
2023/08/28 11:40:01;;;;;;;;;;;;;;;24.89;60.19;96296.91;618804;229;64981;-68
2023/08/28 11:42:28;;;;;;;;;;;;;;;24.89;59.78;96296.13;619044;229;65299;-64
2023/08/28 11:44:56;;;;;;;;;;;;;;;24.89;57.51;96296.91;619119;228;67264;-64
2023/08/28 11:47:25;;;;;;;;;;;;;;;24.93;57.28;96289.79;618874;229;66720;-65
2023/08/28 11:49:54;;;;;;;;;;;;;;;24.95;57.18;96284.90;619026;228;62737;-69
2023/08/28 11:52:22;;;;;;;;;;;;;;;24.98;56.23;96284.27;618866;229;65753;-68
2023/08/28 11:54:51;;;;;;;;;;;;;;;24.99;57.03;96285.87;618870;229;64764;-68
2023/08/28 11:57:20;;;;;;;;;;;;;;;25.00;57.90;96270.52;619243;228;65201;-69
2023/08/28 11:59:48;;;;;;;;;;;;;;;25.02;58.11;96273.70;618963;229;67244;-68
2023/08/28 12:02:16;;;;;;;;;;;;;;;25.03;57.81;96269.89;618867;229;65343;-68
2023/08/28 12:04:43;;;;;;;;;;;;;;;25.05;57.97;96272.28;621179;227;62794;-68
2023/08/28 12:07:16;;;;;;;;;;;;;;;25.07;57.17;96265.45;618673;225;46792;-70
2023/08/28 12:09:45;;;;;;;;;;;;;;;25.09;57.02;96265.15;622320;226;67011;-71
2023/08/28 12:12:14;;;;;;;;;;;;;;;25.10;57.16;96256.78;625111;224;65186;-69
2023/08/28 12:14:45;;;;;;;;;;;;;;;25.12;57.01;96256.45;622365;225;67253;-70
2023/08/28 12:17:13;;;;;;;;;;;;;;;25.12;57.00;96251.86;621812;225;68879;-70
2023/08/28 12:19:41;;;;;;;;;;;;;;;25.14;57.13;96251.55;624488;225;65073;-69
2023/08/28 12:22:10;;;;;;;;;;;;;;;25.15;56.39;96247.78;624303;225;64624;-68
2023/08/28 12:24:42;;;;;;;;;;;;;;;25.15;56.57;96237.81;622249;226;65759;-69
2023/08/28 12:27:10;;;;;;;;;;;;;;;25.16;56.94;96241.31;620429;228;63820;-69
2023/08/28 12:29:37;;;;;;;;;;;;;;;25.18;57.29;96237.20;621400;227;67350;-69
2023/08/28 12:32:06;;;;;;;;;;;;;;;25.19;58.36;96240.67;620475;227;67025;-68
2023/08/28 12:34:34;;;;;;;;;;;;;;;25.19;59.53;96235.30;620788;225;65105;-68
2023/08/28 12:37:05;;;;;;;;;;;;;;;25.18;58.66;96239.08;621212;226;67010;-68
2023/08/28 12:39:34;;;;;;;;;;;;;;;25.17;58.97;96232.91;619789;229;65638;-68
2023/08/28 12:42:02;;;;;;;;;;;;;;;25.18;58.97;96222.95;619272;226;62751;-68
2023/08/28 12:44:31;;;;;;;;;;;;;;;25.19;59.35;96227.23;620430;228;67233;-68
2023/08/28 12:46:58;;;;;;;;;;;;;;;25.18;58.94;96222.95;621508;228;64789;-68
2023/08/28 12:49:27;;;;;;;;;;;;;;;25.19;59.10;96221.86;617261;228;64946;-69
2023/08/28 12:51:54;;;;;;;;;;;;;;;25.20;59.19;96226.11;613300;229;67031;-69
2023/08/28 12:54:22;;;;;;;;;;;;;;;25.20;59.10;96218.05;623082;227;67005;-68